sensor_id;sensor_type;location;lat;lon;timestamp;P1;durP1;ratioP1;P2;durP2;ratioP2
3523;SDS011;1776;53.330;11.498;2023-05-07T00:00:05;11.93;;;8.67;;
3523;SDS011;1776;53.330;11.498;2023-05-07T00:02:34;9.93;;;7.93;;
3523;SDS011;1776;53.330;11.498;2023-05-07T00:05:00;12.83;;;9.57;;
3523;SDS011;1776;53.330;11.498;2023-05-07T00:07:27;9.07;;;7.40;;
3523;SDS011;1776;53.330;11.498;2023-05-07T00:09:52;8.63;;;7.63;;
3523;SDS011;1776;53.330;11.498;2023-05-07T00:12:17;7.00;;;5.90;;
3523;SDS011;1776;53.330;11.498;2023-05-07T00:14:43;10.80;;;7.40;;
3523;SDS011;1776;53.330;11.498;2023-05-07T00:17:08;11.13;;;7.90;;
3523;SDS011;1776;53.330;11.498;2023-05-07T00:19:33;9.67;;;7.73;;
3523;SDS011;1776;53.330;11.498;2023-05-07T00:21:59;12.10;;;7.67;;
3523;SDS011;1776;53.330;11.498;2023-05-07T00:24:24;11.23;;;8.80;;
3523;SDS011;1776;53.330;11.498;2023-05-07T00:26:49;10.13;;;9.07;;
3523;SDS011;1776;53.330;11.498;2023-05-07T00:29:15;11.23;;;8.43;;
3523;SDS011;1776;53.330;11.498;2023-05-07T00:31:40;9.50;;;7.30;;
3523;SDS011;1776;53.330;11.498;2023-05-07T00:34:05;12.83;;;8.37;;
3523;SDS011;1776;53.330;11.498;2023-05-07T00:36:31;10.10;;;8.10;;
3523;SDS011;1776;53.330;11.498;2023-05-07T00:38:56;13.63;;;8.37;;
3523;SDS011;1776;53.330;11.498;2023-05-07T00:41:25;14.50;;;9.67;;
3523;SDS011;1776;53.330;11.498;2023-05-07T00:43:50;13.53;;;8.93;;
3523;SDS011;1776;53.330;11.498;2023-05-07T00:46:16;9.90;;;8.03;;
3523;SDS011;1776;53.330;11.498;2023-05-07T00:48:42;10.50;;;8.47;;
3523;SDS011;1776;53.330;11.498;2023-05-07T00:51:07;11.40;;;8.40;;
3523;SDS011;1776;53.330;11.498;2023-05-07T00:53:36;8.73;;;7.40;;
3523;SDS011;1776;53.330;11.498;2023-05-07T00:56:01;10.40;;;7.70;;
3523;SDS011;1776;53.330;11.498;2023-05-07T00:58:27;10.40;;;8.90;;
3523;SDS011;1776;53.330;11.498;2023-05-07T01:00:52;11.27;;;8.57;;
3523;SDS011;1776;53.330;11.498;2023-05-07T01:03:17;11.50;;;8.73;;
3523;SDS011;1776;53.330;11.498;2023-05-07T01:05:43;10.40;;;8.30;;
3523;SDS011;1776;53.330;11.498;2023-05-07T01:08:11;10.70;;;8.33;;
3523;SDS011;1776;53.330;11.498;2023-05-07T01:10:36;7.60;;;6.50;;
3523;SDS011;1776;53.330;11.498;2023-05-07T01:13:02;9.97;;;7.40;;
3523;SDS011;1776;53.330;11.498;2023-05-07T01:15:27;7.73;;;6.90;;
3523;SDS011;1776;53.330;11.498;2023-05-07T01:17:53;8.80;;;6.90;;
3523;SDS011;1776;53.330;11.498;2023-05-07T01:20:18;9.33;;;7.23;;
3523;SDS011;1776;53.330;11.498;2023-05-07T01:22:44;10.37;;;6.60;;
3523;SDS011;1776;53.330;11.498;2023-05-07T01:25:10;7.57;;;6.80;;
3523;SDS011;1776;53.330;11.498;2023-05-07T01:27:36;9.33;;;7.47;;
3523;SDS011;1776;53.330;11.498;2023-05-07T01:30:02;10.07;;;7.30;;
3523;SDS011;1776;53.330;11.498;2023-05-07T01:32:32;10.03;;;7.30;;
3523;SDS011;1776;53.330;11.498;2023-05-07T01:35:02;8.67;;;7.13;;
3523;SDS011;1776;53.330;11.498;2023-05-07T01:37:32;9.40;;;6.90;;
3523;SDS011;1776;53.330;11.498;2023-05-07T01:39:57;10.00;;;7.10;;
3523;SDS011;1776;53.330;11.498;2023-05-07T01:42:23;8.43;;;6.77;;
3523;SDS011;1776;53.330;11.498;2023-05-07T01:44:48;8.57;;;6.83;;
3523;SDS011;1776;53.330;11.498;2023-05-07T01:47:14;7.17;;;6.47;;
3523;SDS011;1776;53.330;11.498;2023-05-07T01:49:39;9.07;;;6.43;;
3523;SDS011;1776;53.330;11.498;2023-05-07T01:52:05;11.10;;;7.50;;
3523;SDS011;1776;53.330;11.498;2023-05-07T01:54:31;7.67;;;6.20;;
3523;SDS011;1776;53.330;11.498;2023-05-07T01:56:56;8.70;;;6.50;;
3523;SDS011;1776;53.330;11.498;2023-05-07T01:59:22;6.40;;;5.80;;
3523;SDS011;1776;53.330;11.498;2023-05-07T02:01:47;7.83;;;5.90;;
3523;SDS011;1776;53.330;11.498;2023-05-07T02:04:12;8.47;;;7.27;;
3523;SDS011;1776;53.330;11.498;2023-05-07T02:06:38;10.23;;;6.43;;
3523;SDS011;1776;53.330;11.498;2023-05-07T02:09:03;11.33;;;6.60;;
3523;SDS011;1776;53.330;11.498;2023-05-07T02:11:29;6.53;;;5.93;;
3523;SDS011;1776;53.330;11.498;2023-05-07T02:13:55;8.13;;;6.13;;
3523;SDS011;1776;53.330;11.498;2023-05-07T02:16:20;11.40;;;6.23;;
3523;SDS011;1776;53.330;11.498;2023-05-07T02:18:46;8.80;;;6.57;;
3523;SDS011;1776;53.330;11.498;2023-05-07T02:21:12;10.27;;;7.17;;
3523;SDS011;1776;53.330;11.498;2023-05-07T02:23:37;6.77;;;6.00;;
3523;SDS011;1776;53.330;11.498;2023-05-07T02:26:03;8.60;;;7.10;;
3523;SDS011;1776;53.330;11.498;2023-05-07T02:28:29;7.57;;;6.70;;
3523;SDS011;1776;53.330;11.498;2023-05-07T02:30:54;11.23;;;5.97;;
3523;SDS011;1776;53.330;11.498;2023-05-07T02:33:20;11.63;;;6.83;;
3523;SDS011;1776;53.330;11.498;2023-05-07T02:35:45;6.77;;;5.33;;
3523;SDS011;1776;53.330;11.498;2023-05-07T02:38:10;8.87;;;7.00;;
3523;SDS011;1776;53.330;11.498;2023-05-07T02:40:36;10.63;;;6.97;;
3523;SDS011;1776;53.330;11.498;2023-05-07T02:43:04;7.73;;;6.60;;
3523;SDS011;1776;53.330;11.498;2023-05-07T02:45:30;8.27;;;6.37;;
3523;SDS011;1776;53.330;11.498;2023-05-07T02:47:55;8.63;;;6.57;;
3523;SDS011;1776;53.330;11.498;2023-05-07T02:50:21;8.23;;;6.40;;
3523;SDS011;1776;53.330;11.498;2023-05-07T02:52:46;10.33;;;6.70;;
3523;SDS011;1776;53.330;11.498;2023-05-07T02:55:12;7.30;;;5.47;;
3523;SDS011;1776;53.330;11.498;2023-05-07T02:57:37;8.70;;;6.80;;
3523;SDS011;1776;53.330;11.498;2023-05-07T03:00:13;9.37;;;6.57;;
3523;SDS011;1776;53.330;11.498;2023-05-07T03:02:39;8.87;;;6.03;;
3523;SDS011;1776;53.330;11.498;2023-05-07T03:05:04;7.40;;;6.30;;
3523;SDS011;1776;53.330;11.498;2023-05-07T03:07:30;8.13;;;6.30;;
3523;SDS011;1776;53.330;11.498;2023-05-07T03:09:55;6.60;;;5.30;;
3523;SDS011;1776;53.330;11.498;2023-05-07T03:12:21;7.20;;;6.40;;
3523;SDS011;1776;53.330;11.498;2023-05-07T03:14:46;11.87;;;6.07;;
3523;SDS011;1776;53.330;11.498;2023-05-07T03:17:11;11.30;;;7.00;;
3523;SDS011;1776;53.330;11.498;2023-05-07T03:19:36;7.83;;;6.00;;
3523;SDS011;1776;53.330;11.498;2023-05-07T03:22:02;8.47;;;5.80;;
3523;SDS011;1776;53.330;11.498;2023-05-07T03:24:27;7.73;;;5.63;;
3523;SDS011;1776;53.330;11.498;2023-05-07T03:26:52;7.93;;;6.00;;
3523;SDS011;1776;53.330;11.498;2023-05-07T03:29:18;8.13;;;7.27;;
3523;SDS011;1776;53.330;11.498;2023-05-07T03:31:43;6.37;;;5.73;;
3523;SDS011;1776;53.330;11.498;2023-05-07T03:34:08;6.97;;;6.03;;
3523;SDS011;1776;53.330;11.498;2023-05-07T03:36:33;8.77;;;5.80;;
3523;SDS011;1776;53.330;11.498;2023-05-07T03:38:59;8.43;;;5.60;;
3523;SDS011;1776;53.330;11.498;2023-05-07T03:41:24;6.70;;;6.00;;
3523;SDS011;1776;53.330;11.498;2023-05-07T03:43:50;10.90;;;6.10;;
3523;SDS011;1776;53.330;11.498;2023-05-07T03:46:15;7.27;;;6.03;;
3523;SDS011;1776;53.330;11.498;2023-05-07T03:48:41;8.50;;;5.77;;
3523;SDS011;1776;53.330;11.498;2023-05-07T03:51:06;7.37;;;6.40;;
3523;SDS011;1776;53.330;11.498;2023-05-07T03:53:31;8.13;;;6.60;;
3523;SDS011;1776;53.330;11.498;2023-05-07T03:55:56;8.63;;;6.10;;
3523;SDS011;1776;53.330;11.498;2023-05-07T03:58:22;6.83;;;5.40;;
3523;SDS011;1776;53.330;11.498;2023-05-07T04:00:47;9.90;;;6.23;;
3523;SDS011;1776;53.330;11.498;2023-05-07T04:03:13;7.87;;;5.90;;
3523;SDS011;1776;53.330;11.498;2023-05-07T04:05:39;8.97;;;6.13;;
3523;SDS011;1776;53.330;11.498;2023-05-07T04:08:04;6.37;;;5.53;;
3523;SDS011;1776;53.330;11.498;2023-05-07T04:10:30;7.20;;;5.60;;
3523;SDS011;1776;53.330;11.498;2023-05-07T04:12:55;7.70;;;5.90;;
3523;SDS011;1776;53.330;11.498;2023-05-07T04:15:21;9.07;;;5.40;;
3523;SDS011;1776;53.330;11.498;2023-05-07T04:17:47;9.70;;;5.87;;
3523;SDS011;1776;53.330;11.498;2023-05-07T04:20:14;7.77;;;5.40;;
3523;SDS011;1776;53.330;11.498;2023-05-07T04:22:41;7.70;;;5.63;;
3523;SDS011;1776;53.330;11.498;2023-05-07T04:25:06;7.43;;;5.40;;
3523;SDS011;1776;53.330;11.498;2023-05-07T04:27:34;5.97;;;4.77;;
3523;SDS011;1776;53.330;11.498;2023-05-07T04:29:59;6.83;;;6.13;;
3523;SDS011;1776;53.330;11.498;2023-05-07T04:32:25;6.57;;;5.87;;
3523;SDS011;1776;53.330;11.498;2023-05-07T04:34:51;8.00;;;6.00;;
3523;SDS011;1776;53.330;11.498;2023-05-07T04:37:16;8.60;;;5.93;;
3523;SDS011;1776;53.330;11.498;2023-05-07T04:39:42;8.43;;;5.83;;
3523;SDS011;1776;53.330;11.498;2023-05-07T04:42:07;8.27;;;4.80;;
3523;SDS011;1776;53.330;11.498;2023-05-07T04:44:33;6.10;;;5.17;;
3523;SDS011;1776;53.330;11.498;2023-05-07T04:46:59;7.43;;;6.00;;
3523;SDS011;1776;53.330;11.498;2023-05-07T04:49:24;6.03;;;5.50;;
3523;SDS011;1776;53.330;11.498;2023-05-07T04:51:50;7.03;;;5.53;;
3523;SDS011;1776;53.330;11.498;2023-05-07T04:54:15;9.73;;;7.00;;
3523;SDS011;1776;53.330;11.498;2023-05-07T04:56:41;6.50;;;5.43;;
3523;SDS011;1776;53.330;11.498;2023-05-07T04:59:06;8.70;;;5.73;;
3523;SDS011;1776;53.330;11.498;2023-05-07T05:01:31;7.37;;;5.60;;
3523;SDS011;1776;53.330;11.498;2023-05-07T05:03:57;6.30;;;5.13;;
3523;SDS011;1776;53.330;11.498;2023-05-07T05:06:22;7.40;;;5.80;;
3523;SDS011;1776;53.330;11.498;2023-05-07T05:08:47;7.63;;;6.50;;
3523;SDS011;1776;53.330;11.498;2023-05-07T05:11:12;7.37;;;6.60;;
3523;SDS011;1776;53.330;11.498;2023-05-07T05:13:38;6.33;;;5.70;;
3523;SDS011;1776;53.330;11.498;2023-05-07T05:16:03;8.50;;;5.80;;
3523;SDS011;1776;53.330;11.498;2023-05-07T05:18:29;6.00;;;5.40;;
3523;SDS011;1776;53.330;11.498;2023-05-07T05:20:54;6.90;;;5.23;;
3523;SDS011;1776;53.330;11.498;2023-05-07T05:23:19;7.23;;;5.00;;
3523;SDS011;1776;53.330;11.498;2023-05-07T05:25:45;5.93;;;5.33;;
3523;SDS011;1776;53.330;11.498;2023-05-07T05:28:10;6.70;;;5.63;;
3523;SDS011;1776;53.330;11.498;2023-05-07T05:30:35;9.30;;;5.80;;
3523;SDS011;1776;53.330;11.498;2023-05-07T05:33:01;6.57;;;5.87;;
3523;SDS011;1776;53.330;11.498;2023-05-07T05:35:26;7.93;;;6.23;;
3523;SDS011;1776;53.330;11.498;2023-05-07T05:37:51;7.63;;;5.00;;
3523;SDS011;1776;53.330;11.498;2023-05-07T05:40:17;8.43;;;5.50;;
3523;SDS011;1776;53.330;11.498;2023-05-07T05:42:42;8.13;;;5.70;;
3523;SDS011;1776;53.330;11.498;2023-05-07T05:45:07;5.63;;;4.90;;
3523;SDS011;1776;53.330;11.498;2023-05-07T05:47:33;9.53;;;5.80;;
3523;SDS011;1776;53.330;11.498;2023-05-07T05:49:58;7.20;;;5.50;;
3523;SDS011;1776;53.330;11.498;2023-05-07T05:52:24;6.63;;;5.50;;
3523;SDS011;1776;53.330;11.498;2023-05-07T05:54:49;6.17;;;5.60;;
3523;SDS011;1776;53.330;11.498;2023-05-07T05:57:15;6.63;;;5.43;;
3523;SDS011;1776;53.330;11.498;2023-05-07T05:59:40;6.60;;;4.93;;
3523;SDS011;1776;53.330;11.498;2023-05-07T06:02:06;6.40;;;5.10;;
3523;SDS011;1776;53.330;11.498;2023-05-07T06:04:32;6.33;;;4.37;;
3523;SDS011;1776;53.330;11.498;2023-05-07T06:06:57;6.83;;;4.80;;
3523;SDS011;1776;53.330;11.498;2023-05-07T06:09:22;8.10;;;5.80;;
3523;SDS011;1776;53.330;11.498;2023-05-07T06:11:47;6.90;;;5.47;;
3523;SDS011;1776;53.330;11.498;2023-05-07T06:14:13;5.50;;;4.20;;
3523;SDS011;1776;53.330;11.498;2023-05-07T06:16:38;10.10;;;5.53;;
3523;SDS011;1776;53.330;11.498;2023-05-07T06:19:03;6.17;;;5.57;;
3523;SDS011;1776;53.330;11.498;2023-05-07T06:21:28;10.40;;;6.30;;
3523;SDS011;1776;53.330;11.498;2023-05-07T06:23:54;8.70;;;5.20;;
3523;SDS011;1776;53.330;11.498;2023-05-07T06:26:19;7.07;;;4.83;;
3523;SDS011;1776;53.330;11.498;2023-05-07T06:28:45;7.77;;;5.40;;
3523;SDS011;1776;53.330;11.498;2023-05-07T06:31:19;6.73;;;5.13;;
3523;SDS011;1776;53.330;11.498;2023-05-07T06:33:45;6.73;;;5.53;;
3523;SDS011;1776;53.330;11.498;2023-05-07T06:36:11;6.73;;;5.37;;
3523;SDS011;1776;53.330;11.498;2023-05-07T06:38:36;7.40;;;5.60;;
3523;SDS011;1776;53.330;11.498;2023-05-07T06:41:01;6.63;;;6.03;;
3523;SDS011;1776;53.330;11.498;2023-05-07T06:43:26;10.10;;;5.90;;
3523;SDS011;1776;53.330;11.498;2023-05-07T06:45:52;6.77;;;6.07;;
3523;SDS011;1776;53.330;11.498;2023-05-07T06:48:17;8.50;;;6.33;;
3523;SDS011;1776;53.330;11.498;2023-05-07T06:50:42;7.47;;;5.40;;
3523;SDS011;1776;53.330;11.498;2023-05-07T06:53:07;6.40;;;4.93;;
3523;SDS011;1776;53.330;11.498;2023-05-07T06:55:33;7.70;;;6.07;;
3523;SDS011;1776;53.330;11.498;2023-05-07T06:57:58;8.23;;;5.97;;
3523;SDS011;1776;53.330;11.498;2023-05-07T07:00:26;10.07;;;6.60;;
3523;SDS011;1776;53.330;11.498;2023-05-07T07:02:52;9.63;;;6.57;;
3523;SDS011;1776;53.330;11.498;2023-05-07T07:05:18;7.93;;;5.70;;
3523;SDS011;1776;53.330;11.498;2023-05-07T07:07:44;7.37;;;5.77;;
3523;SDS011;1776;53.330;11.498;2023-05-07T07:10:09;6.80;;;6.10;;
3523;SDS011;1776;53.330;11.498;2023-05-07T07:12:34;7.13;;;5.50;;
3523;SDS011;1776;53.330;11.498;2023-05-07T07:15:00;7.60;;;5.13;;
3523;SDS011;1776;53.330;11.498;2023-05-07T07:17:25;4.80;;;4.40;;
3523;SDS011;1776;53.330;11.498;2023-05-07T07:19:50;7.07;;;5.20;;
3523;SDS011;1776;53.330;11.498;2023-05-07T07:22:16;8.20;;;5.17;;
3523;SDS011;1776;53.330;11.498;2023-05-07T07:24:41;8.20;;;4.77;;
3523;SDS011;1776;53.330;11.498;2023-05-07T07:27:06;8.57;;;6.20;;
3523;SDS011;1776;53.330;11.498;2023-05-07T07:29:32;6.30;;;5.70;;
3523;SDS011;1776;53.330;11.498;2023-05-07T07:31:57;7.43;;;6.03;;
3523;SDS011;1776;53.330;11.498;2023-05-07T07:34:22;5.87;;;4.70;;
3523;SDS011;1776;53.330;11.498;2023-05-07T07:36:47;5.73;;;5.03;;
3523;SDS011;1776;53.330;11.498;2023-05-07T07:39:13;4.83;;;4.10;;
3523;SDS011;1776;53.330;11.498;2023-05-07T07:41:38;6.33;;;4.70;;
3523;SDS011;1776;53.330;11.498;2023-05-07T07:44:03;4.63;;;4.20;;
3523;SDS011;1776;53.330;11.498;2023-05-07T07:46:32;5.93;;;4.63;;
3523;SDS011;1776;53.330;11.498;2023-05-07T07:48:57;6.03;;;4.50;;
3523;SDS011;1776;53.330;11.498;2023-05-07T07:51:24;5.20;;;4.47;;
3523;SDS011;1776;53.330;11.498;2023-05-07T07:53:49;5.33;;;4.07;;
3523;SDS011;1776;53.330;11.498;2023-05-07T07:56:15;5.87;;;4.40;;
3523;SDS011;1776;53.330;11.498;2023-05-07T07:58:40;4.33;;;3.90;;
3523;SDS011;1776;53.330;11.498;2023-05-07T08:01:05;5.13;;;3.60;;
3523;SDS011;1776;53.330;11.498;2023-05-07T08:03:30;7.00;;;4.70;;
3523;SDS011;1776;53.330;11.498;2023-05-07T08:05:57;3.50;;;3.20;;
3523;SDS011;1776;53.330;11.498;2023-05-07T08:08:22;15.10;;;5.33;;
3523;SDS011;1776;53.330;11.498;2023-05-07T08:10:48;4.70;;;4.20;;
3523;SDS011;1776;53.330;11.498;2023-05-07T08:13:15;4.73;;;3.60;;
3523;SDS011;1776;53.330;11.498;2023-05-07T08:15:40;5.10;;;3.53;;
3523;SDS011;1776;53.330;11.498;2023-05-07T08:18:05;4.23;;;3.80;;
3523;SDS011;1776;53.330;11.498;2023-05-07T08:20:31;6.50;;;4.33;;
3523;SDS011;1776;53.330;11.498;2023-05-07T08:22:56;6.60;;;4.17;;
3523;SDS011;1776;53.330;11.498;2023-05-07T08:25:21;8.00;;;3.87;;
3523;SDS011;1776;53.330;11.498;2023-05-07T08:27:47;6.40;;;3.80;;
3523;SDS011;1776;53.330;11.498;2023-05-07T08:30:12;3.50;;;3.20;;
3523;SDS011;1776;53.330;11.498;2023-05-07T08:32:38;9.03;;;4.10;;
3523;SDS011;1776;53.330;11.498;2023-05-07T08:35:03;4.80;;;3.30;;
3523;SDS011;1776;53.330;11.498;2023-05-07T08:37:29;6.33;;;3.40;;
3523;SDS011;1776;53.330;11.498;2023-05-07T08:39:54;4.03;;;3.63;;
3523;SDS011;1776;53.330;11.498;2023-05-07T08:42:19;4.00;;;3.67;;
3523;SDS011;1776;53.330;11.498;2023-05-07T08:44:47;3.27;;;2.50;;
3523;SDS011;1776;53.330;11.498;2023-05-07T08:47:17;3.97;;;3.03;;
3523;SDS011;1776;53.330;11.498;2023-05-07T08:49:44;3.50;;;3.07;;
3523;SDS011;1776;53.330;11.498;2023-05-07T08:52:11;3.47;;;2.73;;
3523;SDS011;1776;53.330;11.498;2023-05-07T08:54:37;2.87;;;2.20;;
3523;SDS011;1776;53.330;11.498;2023-05-07T08:57:03;4.30;;;3.23;;
3523;SDS011;1776;53.330;11.498;2023-05-07T08:59:28;2.83;;;2.63;;
3523;SDS011;1776;53.330;11.498;2023-05-07T09:01:53;3.37;;;2.80;;
3523;SDS011;1776;53.330;11.498;2023-05-07T09:04:18;3.43;;;2.53;;
3523;SDS011;1776;53.330;11.498;2023-05-07T09:06:44;4.57;;;2.50;;
3523;SDS011;1776;53.330;11.498;2023-05-07T09:09:09;3.17;;;2.80;;
3523;SDS011;1776;53.330;11.498;2023-05-07T09:11:38;3.17;;;2.70;;
3523;SDS011;1776;53.330;11.498;2023-05-07T09:14:04;2.40;;;2.13;;
3523;SDS011;1776;53.330;11.498;2023-05-07T09:16:29;3.27;;;2.47;;
3523;SDS011;1776;53.330;11.498;2023-05-07T09:18:56;3.33;;;2.37;;
3523;SDS011;1776;53.330;11.498;2023-05-07T09:21:23;3.40;;;2.63;;
3523;SDS011;1776;53.330;11.498;2023-05-07T09:23:52;3.07;;;2.37;;
3523;SDS011;1776;53.330;11.498;2023-05-07T09:26:18;4.50;;;2.30;;
3523;SDS011;1776;53.330;11.498;2023-05-07T09:28:45;2.90;;;2.60;;
3523;SDS011;1776;53.330;11.498;2023-05-07T09:31:11;2.53;;;2.33;;
3523;SDS011;1776;53.330;11.498;2023-05-07T09:33:37;4.67;;;2.43;;
3523;SDS011;1776;53.330;11.498;2023-05-07T09:36:06;1.87;;;1.77;;
3523;SDS011;1776;53.330;11.498;2023-05-07T09:38:34;3.50;;;1.97;;
3523;SDS011;1776;53.330;11.498;2023-05-07T09:41:04;3.30;;;2.60;;
3523;SDS011;1776;53.330;11.498;2023-05-07T09:43:34;4.67;;;2.67;;
3523;SDS011;1776;53.330;11.498;2023-05-07T09:46:05;2.83;;;2.50;;
3523;SDS011;1776;53.330;11.498;2023-05-07T09:48:36;2.63;;;1.97;;
3523;SDS011;1776;53.330;11.498;2023-05-07T09:51:05;3.70;;;2.63;;
3523;SDS011;1776;53.330;11.498;2023-05-07T09:53:47;3.43;;;2.70;;
3523;SDS011;1776;53.330;11.498;2023-05-07T09:56:13;4.00;;;2.07;;
3523;SDS011;1776;53.330;11.498;2023-05-07T09:58:40;2.60;;;2.27;;
3523;SDS011;1776;53.330;11.498;2023-05-07T10:01:06;2.83;;;2.63;;
3523;SDS011;1776;53.330;11.498;2023-05-07T10:03:32;3.73;;;2.77;;
3523;SDS011;1776;53.330;11.498;2023-05-07T10:06:00;2.47;;;2.27;;
3523;SDS011;1776;53.330;11.498;2023-05-07T10:08:26;2.40;;;2.20;;
3523;SDS011;1776;53.330;11.498;2023-05-07T10:10:51;2.30;;;2.10;;
3523;SDS011;1776;53.330;11.498;2023-05-07T10:13:17;3.77;;;2.40;;
3523;SDS011;1776;53.330;11.498;2023-05-07T10:15:44;3.50;;;2.40;;
3523;SDS011;1776;53.330;11.498;2023-05-07T10:18:09;2.43;;;2.23;;
3523;SDS011;1776;53.330;11.498;2023-05-07T10:20:36;3.37;;;2.93;;
3523;SDS011;1776;53.330;11.498;2023-05-07T10:23:03;3.00;;;2.07;;
3523;SDS011;1776;53.330;11.498;2023-05-07T10:25:31;4.13;;;2.60;;
3523;SDS011;1776;53.330;11.498;2023-05-07T10:27:59;3.43;;;1.97;;
3523;SDS011;1776;53.330;11.498;2023-05-07T10:33:10;2.40;;;2.20;;
3523;SDS011;1776;53.330;11.498;2023-05-07T10:35:43;2.50;;;2.30;;
3523;SDS011;1776;53.330;11.498;2023-05-07T10:38:10;3.37;;;2.10;;
3523;SDS011;1776;53.330;11.498;2023-05-07T10:40:35;3.43;;;1.83;;
3523;SDS011;1776;53.330;11.498;2023-05-07T10:43:02;2.40;;;1.83;;
3523;SDS011;1776;53.330;11.498;2023-05-07T10:45:30;3.37;;;2.23;;
3523;SDS011;1776;53.330;11.498;2023-05-07T10:48:14;3.10;;;2.00;;
3523;SDS011;1776;53.330;11.498;2023-05-07T10:50:41;2.00;;;1.60;;
3523;SDS011;1776;53.330;11.498;2023-05-07T10:55:47;2.50;;;2.30;;
3523;SDS011;1776;53.330;11.498;2023-05-07T10:58:28;2.83;;;2.50;;
3523;SDS011;1776;53.330;11.498;2023-05-07T11:03:25;2.67;;;1.80;;
3523;SDS011;1776;53.330;11.498;2023-05-07T11:11:16;2.03;;;1.83;;
3523;SDS011;1776;53.330;11.498;2023-05-07T11:13:43;2.57;;;2.20;;
3523;SDS011;1776;53.330;11.498;2023-05-07T11:16:22;4.03;;;2.67;;
3523;SDS011;1776;53.330;11.498;2023-05-07T11:18:48;1.90;;;1.70;;
3523;SDS011;1776;53.330;11.498;2023-05-07T11:21:31;2.80;;;2.50;;
3523;SDS011;1776;53.330;11.498;2023-05-07T11:24:05;2.30;;;2.10;;
3523;SDS011;1776;53.330;11.498;2023-05-07T11:26:41;2.90;;;2.30;;
3523;SDS011;1776;53.330;11.498;2023-05-07T11:29:14;2.80;;;2.60;;
3523;SDS011;1776;53.330;11.498;2023-05-07T11:31:47;2.40;;;2.10;;
3523;SDS011;1776;53.330;11.498;2023-05-07T11:34:14;3.60;;;2.07;;
3523;SDS011;1776;53.330;11.498;2023-05-07T11:36:45;2.80;;;2.60;;
3523;SDS011;1776;53.330;11.498;2023-05-07T11:39:25;2.33;;;2.10;;
3523;SDS011;1776;53.330;11.498;2023-05-07T11:42:01;2.23;;;2.03;;
3523;SDS011;1776;53.330;11.498;2023-05-07T11:44:40;3.20;;;2.27;;
3523;SDS011;1776;53.330;11.498;2023-05-07T11:47:07;7.90;;;2.23;;
3523;SDS011;1776;53.330;11.498;2023-05-07T11:49:32;3.33;;;2.47;;
3523;SDS011;1776;53.330;11.498;2023-05-07T11:51:59;2.80;;;2.13;;
3523;SDS011;1776;53.330;11.498;2023-05-07T11:54:24;3.10;;;2.40;;
3523;SDS011;1776;53.330;11.498;2023-05-07T11:56:50;3.60;;;2.20;;
3523;SDS011;1776;53.330;11.498;2023-05-07T11:59:18;2.13;;;1.90;;
3523;SDS011;1776;53.330;11.498;2023-05-07T12:01:46;2.60;;;2.30;;
3523;SDS011;1776;53.330;11.498;2023-05-07T12:04:12;5.00;;;2.33;;
3523;SDS011;1776;53.330;11.498;2023-05-07T12:06:37;3.40;;;2.33;;
3523;SDS011;1776;53.330;11.498;2023-05-07T12:09:04;1.90;;;1.80;;
3523;SDS011;1776;53.330;11.498;2023-05-07T12:11:32;3.23;;;2.30;;
3523;SDS011;1776;53.330;11.498;2023-05-07T12:13:57;1.63;;;1.53;;
3523;SDS011;1776;53.330;11.498;2023-05-07T12:16:22;3.10;;;2.10;;
3523;SDS011;1776;53.330;11.498;2023-05-07T12:18:48;3.93;;;2.20;;
3523;SDS011;1776;53.330;11.498;2023-05-07T12:21:13;2.83;;;2.30;;
3523;SDS011;1776;53.330;11.498;2023-05-07T12:23:39;2.93;;;2.23;;
3523;SDS011;1776;53.330;11.498;2023-05-07T12:26:05;2.50;;;2.17;;
3523;SDS011;1776;53.330;11.498;2023-05-07T12:28:31;3.10;;;2.10;;
3523;SDS011;1776;53.330;11.498;2023-05-07T12:31:01;2.50;;;2.30;;
3523;SDS011;1776;53.330;11.498;2023-05-07T12:33:26;2.23;;;2.03;;
3523;SDS011;1776;53.330;11.498;2023-05-07T12:35:53;2.57;;;2.23;;
3523;SDS011;1776;53.330;11.498;2023-05-07T12:38:21;2.40;;;2.20;;
3523;SDS011;1776;53.330;11.498;2023-05-07T12:40:47;6.07;;;2.60;;
3523;SDS011;1776;53.330;11.498;2023-05-07T12:43:16;3.07;;;2.07;;
3523;SDS011;1776;53.330;11.498;2023-05-07T12:45:48;2.73;;;2.37;;
3523;SDS011;1776;53.330;11.498;2023-05-07T12:48:15;2.63;;;2.07;;
3523;SDS011;1776;53.330;11.498;2023-05-07T12:50:40;3.07;;;2.20;;
3523;SDS011;1776;53.330;11.498;2023-05-07T12:53:06;5.90;;;1.80;;
3523;SDS011;1776;53.330;11.498;2023-05-07T12:55:39;4.67;;;2.77;;
3523;SDS011;1776;53.330;11.498;2023-05-07T12:58:14;2.30;;;2.10;;
3523;SDS011;1776;53.330;11.498;2023-05-07T13:00:40;3.90;;;2.10;;
3523;SDS011;1776;53.330;11.498;2023-05-07T13:03:08;3.67;;;2.40;;
3523;SDS011;1776;53.330;11.498;2023-05-07T13:05:33;2.60;;;2.20;;
3523;SDS011;1776;53.330;11.498;2023-05-07T13:07:58;1.97;;;1.77;;
3523;SDS011;1776;53.330;11.498;2023-05-07T13:10:24;2.33;;;2.10;;
3523;SDS011;1776;53.330;11.498;2023-05-07T13:12:50;3.93;;;2.83;;
3523;SDS011;1776;53.330;11.498;2023-05-07T13:15:16;2.43;;;2.07;;
3523;SDS011;1776;53.330;11.498;2023-05-07T13:17:41;5.30;;;2.80;;
3523;SDS011;1776;53.330;11.498;2023-05-07T13:20:08;2.10;;;1.90;;
3523;SDS011;1776;53.330;11.498;2023-05-07T13:22:34;2.53;;;2.33;;
3523;SDS011;1776;53.330;11.498;2023-05-07T13:25:00;1.80;;;1.70;;
3523;SDS011;1776;53.330;11.498;2023-05-07T13:27:25;3.20;;;2.47;;
3523;SDS011;1776;53.330;11.498;2023-05-07T13:29:51;2.83;;;2.03;;
3523;SDS011;1776;53.330;11.498;2023-05-07T13:32:16;3.60;;;1.90;;
3523;SDS011;1776;53.330;11.498;2023-05-07T13:34:41;4.00;;;2.30;;
3523;SDS011;1776;53.330;11.498;2023-05-07T13:37:06;2.80;;;2.37;;
3523;SDS011;1776;53.330;11.498;2023-05-07T13:39:32;3.00;;;1.97;;
3523;SDS011;1776;53.330;11.498;2023-05-07T13:41:58;3.07;;;2.00;;
3523;SDS011;1776;53.330;11.498;2023-05-07T13:44:23;3.53;;;1.87;;
3523;SDS011;1776;53.330;11.498;2023-05-07T13:46:48;4.03;;;2.00;;
3523;SDS011;1776;53.330;11.498;2023-05-07T13:49:13;3.00;;;1.93;;
3523;SDS011;1776;53.330;11.498;2023-05-07T13:51:39;2.50;;;2.20;;
3523;SDS011;1776;53.330;11.498;2023-05-07T13:54:04;2.20;;;1.70;;
3523;SDS011;1776;53.330;11.498;2023-05-07T13:56:29;2.20;;;2.00;;
3523;SDS011;1776;53.330;11.498;2023-05-07T13:58:57;4.03;;;2.20;;
3523;SDS011;1776;53.330;11.498;2023-05-07T14:01:22;3.70;;;1.83;;
3523;SDS011;1776;53.330;11.498;2023-05-07T14:03:47;6.83;;;2.30;;
3523;SDS011;1776;53.330;11.498;2023-05-07T14:06:12;5.67;;;1.93;;
3523;SDS011;1776;53.330;11.498;2023-05-07T14:08:38;3.27;;;2.07;;
3523;SDS011;1776;53.330;11.498;2023-05-07T14:11:03;1.77;;;1.67;;
3523;SDS011;1776;53.330;11.498;2023-05-07T14:13:28;2.77;;;2.40;;
3523;SDS011;1776;53.330;11.498;2023-05-07T14:15:55;2.83;;;1.90;;
3523;SDS011;1776;53.330;11.498;2023-05-07T14:18:21;2.30;;;2.10;;
3523;SDS011;1776;53.330;11.498;2023-05-07T14:20:46;2.50;;;1.90;;
3523;SDS011;1776;53.330;11.498;2023-05-07T14:23:13;2.57;;;2.20;;
3523;SDS011;1776;53.330;11.498;2023-05-07T14:25:39;2.43;;;2.10;;
3523;SDS011;1776;53.330;11.498;2023-05-07T14:28:04;2.73;;;2.30;;
3523;SDS011;1776;53.330;11.498;2023-05-07T14:30:29;3.30;;;2.00;;
3523;SDS011;1776;53.330;11.498;2023-05-07T14:32:55;3.80;;;1.87;;
3523;SDS011;1776;53.330;11.498;2023-05-07T14:35:20;2.50;;;1.67;;
3523;SDS011;1776;53.330;11.498;2023-05-07T14:37:45;2.60;;;2.07;;
3523;SDS011;1776;53.330;11.498;2023-05-07T14:40:11;3.50;;;1.93;;
3523;SDS011;1776;53.330;11.498;2023-05-07T14:42:36;2.97;;;2.03;;
3523;SDS011;1776;53.330;11.498;2023-05-07T14:45:02;2.23;;;2.00;;
3523;SDS011;1776;53.330;11.498;2023-05-07T14:47:27;2.53;;;2.33;;
3523;SDS011;1776;53.330;11.498;2023-05-07T14:49:52;2.37;;;1.80;;
3523;SDS011;1776;53.330;11.498;2023-05-07T14:52:18;1.87;;;1.77;;
3523;SDS011;1776;53.330;11.498;2023-05-07T14:54:43;2.17;;;1.97;;
3523;SDS011;1776;53.330;11.498;2023-05-07T14:57:09;2.20;;;2.00;;
3523;SDS011;1776;53.330;11.498;2023-05-07T14:59:35;2.20;;;1.70;;
3523;SDS011;1776;53.330;11.498;2023-05-07T15:02:02;2.47;;;2.27;;
3523;SDS011;1776;53.330;11.498;2023-05-07T15:04:27;2.57;;;1.70;;
3523;SDS011;1776;53.330;11.498;2023-05-07T15:06:52;4.07;;;1.90;;